createdAt,value
2022-09-14T00:01:40.180Z,17.38
2022-09-14T00:06:48.440Z,17.12
2022-09-14T00:11:57.568Z,17.12
2022-09-14T00:17:07.705Z,17
2022-09-14T00:22:23.807Z,17.25
2022-09-14T00:27:40.448Z,17
2022-09-14T00:32:57.928Z,17
2022-09-14T00:38:15.481Z,17.38
2022-09-14T00:43:34.041Z,17
2022-09-14T00:48:50.245Z,17.44
2022-09-14T00:54:00.625Z,17.06
2022-09-14T00:59:10.392Z,17.12
2022-09-14T01:04:20.228Z,17.38
2022-09-14T01:09:28.646Z,17.44
2022-09-14T01:14:38.383Z,17.25
2022-09-14T01:19:46.869Z,16.81
2022-09-14T01:24:11.669Z,17.12
2022-09-14T01:29:20.761Z,16.94
2022-09-14T01:34:29.882Z,17.06
2022-09-14T01:39:38.999Z,16.94
2022-09-14T01:44:48.759Z,16.75
2022-09-14T01:49:59.205Z,16.81
2022-09-14T01:55:08.291Z,16.88
2022-09-14T02:00:16.771Z,16.62
2022-09-14T02:05:27.157Z,16.56
2022-09-14T02:10:40.120Z,16.62
2022-09-14T02:15:49.329Z,16.31
2022-09-14T02:21:18.846Z,16.25
2022-09-14T02:26:32.397Z,16
2022-09-14T02:31:42.909Z,16.19
2022-09-14T02:36:51.958Z,16.06
2022-09-14T02:42:02.373Z,16.12
2022-09-14T02:47:16.601Z,16.12
2022-09-14T02:52:38.843Z,16.12
2022-09-14T02:57:39.973Z,16
2022-09-14T03:02:53.093Z,16
2022-09-14T03:08:02.710Z,15.94
2022-09-14T03:13:11.806Z,15.88
2022-09-14T03:18:20.931Z,16.06
2022-09-14T03:23:33.880Z,16.06
2022-09-14T03:28:48.127Z,15.88
2022-09-14T03:34:27.288Z,16.06
2022-09-14T03:39:36.442Z,15.69
2022-09-14T03:44:45.560Z,15.94
2022-09-14T03:49:54.681Z,15.81
2022-09-14T03:55:05.091Z,16.06
2022-09-14T04:00:24.594Z,16.19
2022-09-14T04:05:34.207Z,15.88
2022-09-14T04:10:46.554Z,15.88
2022-09-14T04:15:59.533Z,16.06
2022-09-14T04:21:26.530Z,15.94
2022-09-14T04:26:36.278Z,16
2022-09-14T04:32:06.441Z,15.88
2022-09-14T04:36:53.878Z,15.94
2022-09-14T04:42:02.359Z,15.81
2022-09-14T04:47:11.504Z,15.56
2022-09-14T04:52:20.606Z,15.62
2022-09-14T04:57:29.078Z,15.56
2022-09-14T05:02:38.353Z,15.38
2022-09-14T05:07:46.676Z,15.5
2022-09-14T05:13:02.440Z,15.06
2022-09-14T05:18:19.979Z,15.19
2022-09-14T05:23:36.047Z,15.56
2022-09-14T05:28:55.404Z,15.5
2022-09-14T05:34:12.203Z,15.19
2022-09-14T05:38:42.679Z,15.19
2022-09-14T05:43:52.450Z,14.88
2022-09-14T05:49:01.561Z,14.69
2022-09-14T05:54:10.695Z,14.81
2022-09-14T05:59:19.166Z,15.12
2022-09-14T06:04:28.923Z,14.94
2022-09-14T06:09:36.808Z,14.75
2022-09-14T06:14:48.381Z,15.12
2022-09-14T06:20:03.641Z,15.19
2022-09-14T06:25:07.958Z,15.25
2022-09-14T06:30:16.469Z,15.25
2022-09-14T06:35:25.563Z,15.25
2022-09-14T06:40:35.978Z,14.81
2022-09-14T06:45:44.427Z,14.88
2022-09-14T06:50:53.558Z,14.81
2022-09-14T06:56:03.344Z,14.5
2022-09-14T07:01:12.451Z,14.56
2022-09-14T07:06:20.934Z,14.5
2022-09-14T07:11:29.420Z,14.94
2022-09-14T07:16:39.160Z,14.56
2022-09-14T07:21:48.934Z,14.69
2022-09-14T07:26:58.678Z,14.88
2022-09-14T07:32:07.160Z,14.5
2022-09-14T07:37:16.375Z,14.56
2022-09-14T07:42:26.040Z,14.44
2022-09-14T07:47:35.180Z,13.69
2022-09-14T07:52:44.923Z,13.75
2022-09-14T07:57:56.893Z,14
2022-09-14T08:03:05.719Z,13.44
2022-09-14T08:08:15.483Z,13.81
2022-09-14T08:13:24.702Z,13.56
2022-09-14T08:18:33.734Z,13.62
2022-09-14T08:23:42.200Z,13.69
2022-09-14T08:28:51.320Z,13.44
2022-09-14T08:34:00.455Z,13.69
2022-09-14T08:39:10.195Z,13.75
2022-09-14T08:44:19.319Z,14
2022-09-14T08:49:32.602Z,13.94
2022-09-14T08:54:50.134Z,13.62
2022-09-14T09:00:07.883Z,13.75
2022-09-14T09:05:24.695Z,13.62
2022-09-14T09:10:41.645Z,13.69
2022-09-14T09:15:57.674Z,13.44
2022-09-14T09:20:25.076Z,13.62
2022-09-14T09:25:34.202Z,13.75
2022-09-14T09:30:43.961Z,13.75
2022-09-14T09:35:53.095Z,14.12
2022-09-14T09:41:02.842Z,13.69
2022-09-14T09:46:12.825Z,14.06
2022-09-14T09:51:24.262Z,13.75
2022-09-14T09:56:34.043Z,13.94
2022-09-14T10:02:02.523Z,13.94
2022-09-14T10:07:12.158Z,14
2022-09-14T10:12:23.778Z,13.88
2022-09-14T10:17:31.000Z,13.81
2022-09-14T10:22:43.321Z,13.62
2022-09-14T10:27:52.441Z,13.56
2022-09-14T10:33:02.203Z,13.56
2022-09-14T10:38:11.318Z,13.81
2022-09-14T10:43:21.720Z,13.88
2022-09-14T10:48:36.729Z,13.56
2022-09-14T10:53:45.725Z,13.88
2022-09-14T10:58:55.485Z,14.12
2022-09-14T11:04:03.960Z,13.56
2022-09-14T11:09:14.933Z,13.75
2022-09-14T11:19:07.886Z,13.94
2022-09-14T11:24:24.847Z,13.94
2022-09-14T11:29:40.844Z,13.62
2022-09-14T11:34:57.168Z,13.75
2022-09-14T11:37:15.901Z,13.75
2022-09-14T11:42:26.054Z,13.81
2022-09-14T11:44:06.070Z,13.81
2022-09-14T11:48:43.016Z,14
2022-09-14T11:53:32.280Z,14.06
2022-09-14T12:01:22.287Z,14.19
2022-09-14T12:06:39.384Z,14.06
2022-09-14T12:11:55.887Z,14.12
2022-09-14T12:17:44.524Z,13.94
2022-09-14T12:22:54.866Z,13.75
2022-09-14T12:23:17.588Z,13.75
2022-09-14T12:28:13.571Z,13.88
2022-09-14T12:28:33.884Z,13.88
2022-09-14T12:33:31.641Z,13.81
2022-09-14T12:33:50.569Z,13.81
2022-09-14T12:38:50.381Z,13.88
2022-09-14T12:39:07.320Z,13.88
2022-09-14T12:44:10.361Z,13.94
2022-09-14T12:44:24.437Z,13.94
2022-09-14T12:49:24.615Z,14
2022-09-14T12:50:44.205Z,14
2022-09-14T12:55:53.080Z,13.81
2022-09-14T12:56:02.768Z,13.81
2022-09-14T13:01:13.248Z,14.12
2022-09-14T13:04:40.820Z,14.12
2022-09-14T13:09:56.225Z,14.5
2022-09-14T13:15:14.302Z,13.75
2022-09-14T13:20:29.850Z,14.19
2022-09-14T13:25:45.340Z,14.31
2022-09-14T13:26:35.344Z,14.31
2022-09-14T13:36:15.740Z,14.25
2022-09-14T13:37:05.740Z,14.25
2022-09-14T13:41:34.206Z,14.56
2022-09-14T13:42:26.168Z,14.56
2022-09-14T13:47:25.572Z,14.38
2022-09-14T13:47:37.449Z,14.38
2022-09-14T13:53:03.244Z,14.38
2022-09-14T13:53:04.951Z,14.38
2022-09-14T13:58:00.438Z,14.19
2022-09-14T13:58:10.851Z,14.19
2022-09-14T14:03:21.081Z,14.19
2022-09-14T14:03:31.569Z,14.19
2022-09-14T14:08:41.738Z,14.44
2022-09-14T14:08:56.196Z,14.44
2022-09-14T14:13:59.799Z,14.44
2022-09-14T14:14:10.120Z,14.44
2022-09-14T14:19:19.159Z,14.38
2022-09-14T14:20:01.643Z,14.38
2022-09-14T14:25:14.213Z,14.31
2022-09-14T14:25:20.842Z,14.31
2022-09-14T14:30:29.880Z,14.25
2022-09-14T14:30:43.083Z,14.25
2022-09-14T14:35:52.443Z,14.69
2022-09-14T14:36:02.023Z,14.69
2022-09-14T14:41:09.882Z,14.5
2022-09-14T14:41:19.489Z,14.5
2022-09-14T14:46:27.365Z,14.69
2022-09-14T14:46:36.878Z,14.69
2022-09-14T14:51:45.388Z,14.69
2022-09-14T14:51:54.938Z,14.69
2022-09-14T14:57:02.840Z,14.69
2022-09-14T14:57:12.268Z,14.69
2022-09-14T15:02:19.643Z,14.69
2022-09-14T15:02:31.197Z,14.69
2022-09-14T15:07:38.985Z,14.62
2022-09-14T15:07:50.501Z,14.62
2022-09-14T15:12:58.358Z,14.75
2022-09-14T15:13:07.949Z,14.75
2022-09-14T15:18:15.800Z,14.75
2022-09-14T15:18:25.381Z,14.75
2022-09-14T15:23:32.610Z,14.75
2022-09-14T15:23:43.697Z,14.75
2022-09-14T15:28:52.586Z,14.94
2022-09-14T15:29:02.030Z,14.94
2022-09-14T15:34:10.683Z,15.25
2022-09-14T15:34:20.263Z,15.25
2022-09-14T15:39:28.772Z,15
2022-09-14T15:39:38.002Z,15
2022-09-14T15:48:28.094Z,14.69
2022-09-14T15:53:44.705Z,14.62
2022-09-14T15:59:01.476Z,14.81
2022-09-14T16:04:16.458Z,14.81
2022-09-14T16:09:32.569Z,15.12
2022-09-14T16:14:50.655Z,14.88
2022-09-14T16:20:06.137Z,14.88
2022-09-14T16:25:20.413Z,14.88
2022-09-14T16:30:35.274Z,14.75
2022-09-14T16:35:52.698Z,14.62
2022-09-14T16:41:08.867Z,14.5
2022-09-14T16:46:25.062Z,14.81
2022-09-14T16:51:41.180Z,14.81
2022-09-14T16:56:56.252Z,14.88
2022-09-14T17:02:10.996Z,14.75
2022-09-14T17:07:26.458Z,14.88
2022-09-14T17:12:41.376Z,14.94
2022-09-14T17:17:56.862Z,14.5
2022-09-14T17:23:12.376Z,14.44
2022-09-14T17:24:02.381Z,14.44
2022-09-14T17:28:30.199Z,14.69
2022-09-14T17:29:17.268Z,14.69
2022-09-14T17:33:46.423Z,14.75
2022-09-14T17:34:34.136Z,14.75
2022-09-14T17:39:08.013Z,14.31
2022-09-14T17:39:50.241Z,14.31
2022-09-14T17:44:20.141Z,14.44
2022-09-14T17:45:05.778Z,14.44
2022-09-14T17:49:34.834Z,14.25
2022-09-14T17:50:20.649Z,14.25
2022-09-14T17:54:54.213Z,14.25
2022-09-14T17:55:36.164Z,14.25
2022-09-14T18:00:13.561Z,14.5
2022-09-14T18:00:51.083Z,14.5
2022-09-14T18:05:29.733Z,14.31
2022-09-14T18:06:07.821Z,14.31
2022-09-14T18:10:49.717Z,14.38
2022-09-14T18:11:23.980Z,14.38
2022-09-14T18:16:07.269Z,14.31
2022-09-14T18:23:15.080Z,14.31
2022-09-14T18:28:25.718Z,14.44
2022-09-14T18:28:31.893Z,14.44
2022-09-14T18:33:41.241Z,14.38
2022-09-14T18:33:49.839Z,14.38
2022-09-14T18:38:58.854Z,13.94
2022-09-14T18:39:07.441Z,13.94
2022-09-14T18:44:17.405Z,14.19
2022-09-14T18:44:28.041Z,14.19
2022-09-14T18:49:38.678Z,13.81
2022-09-14T18:49:47.404Z,13.81
2022-09-14T18:54:55.491Z,13.81
2022-09-14T18:55:04.041Z,13.81
2022-09-14T19:00:18.716Z,13.81
2022-09-14T19:00:20.849Z,13.81
2022-09-14T19:05:29.730Z,14.12
2022-09-14T19:05:36.529Z,14.12
2022-09-14T19:10:46.539Z,14.19
2022-09-14T19:10:57.127Z,14.19
2022-09-14T19:16:06.610Z,14.06
2022-09-14T19:16:17.364Z,14.06
2022-09-14T19:21:27.147Z,13.75
2022-09-14T19:29:33.179Z,14
2022-09-14T19:30:23.180Z,14
2022-09-14T19:34:48.694Z,13.94
2022-09-14T19:40:04.944Z,13.88
2022-09-14T19:45:21.095Z,13.94
2022-09-14T19:50:35.888Z,13.88
2022-09-14T19:55:51.454Z,13.94
2022-09-14T20:01:06.305Z,13.94
2022-09-14T20:06:21.238Z,14.12
2022-09-14T20:11:36.708Z,14.25
2022-09-14T20:16:52.223Z,14.25
2022-09-14T20:22:08.413Z,14.19
2022-09-14T20:27:24.543Z,14.19
2022-09-14T20:32:40.703Z,14.06
2022-09-14T20:37:56.865Z,14.12
2022-09-14T20:43:14.306Z,14
2022-09-14T20:44:04.305Z,14
2022-09-14T20:48:30.516Z,14.06
2022-09-14T20:49:20.522Z,14.06
2022-09-14T20:53:50.729Z,14.06
2022-09-14T20:54:40.724Z,14.06
2022-09-14T20:59:02.141Z,14.19
2022-09-14T20:59:52.142Z,14.19
2022-09-14T21:04:18.332Z,14.12
2022-09-14T21:05:08.335Z,14.12
2022-09-14T21:09:33.179Z,14.06
2022-09-14T21:10:27.248Z,14.06
2022-09-14T21:14:49.341Z,14
2022-09-14T21:15:39.352Z,14
2022-09-14T21:20:06.142Z,13.94
2022-09-14T21:20:58.055Z,13.94
2022-09-14T21:25:22.339Z,14
2022-09-14T21:26:12.339Z,14
2022-09-14T21:30:40.424Z,14
2022-09-14T21:31:30.419Z,14
2022-09-14T21:35:55.904Z,14
2022-09-14T21:36:45.903Z,14
2022-09-14T21:41:11.423Z,13.88
2022-09-14T21:42:01.411Z,13.88
2022-09-14T21:46:27.040Z,13.75
2022-09-14T21:47:16.980Z,13.75
2022-09-14T21:51:40.543Z,13.75
2022-09-14T21:52:30.541Z,13.75
2022-09-14T21:56:57.342Z,13.81
2022-09-14T21:57:47.339Z,13.81
2022-09-14T22:02:12.879Z,13.75
2022-09-14T22:03:02.916Z,13.75
2022-09-14T22:07:28.379Z,13.81
2022-09-14T22:08:18.380Z,13.81
2022-09-14T22:12:44.558Z,13.88
2022-09-14T22:13:34.554Z,13.88
2022-09-14T22:18:02.204Z,13.88
2022-09-14T22:18:49.711Z,13.88
2022-09-14T22:23:14.950Z,13.94
2022-09-14T22:24:04.947Z,13.94
2022-09-14T22:28:31.137Z,13.94
2022-09-14T22:33:47.357Z,14.06
2022-09-14T22:34:37.357Z,14.06
2022-09-14T22:39:02.780Z,14.06
2022-09-14T22:39:52.840Z,14.06
2022-09-14T22:44:18.944Z,14
2022-09-14T22:49:35.149Z,14.06
2022-09-14T22:50:25.138Z,14.06
2022-09-14T22:54:51.258Z,14.12
2022-09-14T22:55:41.260Z,14.12
2022-09-14T23:00:10.007Z,14
2022-09-14T23:05:24.952Z,14
2022-09-14T23:06:14.948Z,14
2022-09-14T23:10:40.406Z,14.12
2022-09-14T23:11:30.410Z,14.12
2022-09-14T23:15:56.544Z,14.06
2022-09-14T23:16:46.602Z,14.06
2022-09-14T23:21:13.735Z,14.12
2022-09-14T23:22:03.399Z,14.12
2022-09-14T23:26:32.435Z,14.06
2022-09-14T23:27:19.498Z,14.06
2022-09-14T23:31:50.522Z,14.06
2022-09-14T23:32:35.669Z,14.06
2022-09-14T23:37:08.596Z,14.06
2022-09-14T23:37:50.542Z,14.06
2022-09-14T23:42:27.324Z,13.88
2022-09-14T23:43:05.473Z,13.88
2022-09-14T23:47:45.384Z,13.81
2022-09-14T23:48:21.608Z,13.81
2022-09-14T23:53:02.200Z,13.75
2022-09-14T23:53:37.100Z,13.75
2022-09-14T23:58:18.999Z,13.75
2022-09-14T23:58:52.119Z,13.75
